createdAt,value
2018-11-23T00:00:42.924Z,0
2018-11-23T00:01:42.859Z,0
2018-11-23T00:02:42.849Z,0
2018-11-23T00:03:43.079Z,0
2018-11-23T00:04:43.304Z,0
2018-11-23T00:05:43.038Z,0
2018-11-23T00:06:43.253Z,0
2018-11-23T00:07:42.987Z,0
2018-11-23T00:08:42.692Z,0
2018-11-23T00:09:42.933Z,0
2018-11-23T00:10:42.656Z,0
2018-11-23T00:11:42.626Z,0
2018-11-23T00:12:42.608Z,0
2018-11-23T00:13:42.835Z,0
2018-11-23T00:14:42.561Z,0
2018-11-23T00:15:42.529Z,0
2018-11-23T00:16:42.515Z,0
2018-11-23T00:17:42.512Z,0
2018-11-23T00:18:42.465Z,0
2018-11-23T00:19:42.440Z,0
2018-11-23T00:20:42.687Z,0
2018-11-23T00:21:42.697Z,0
2018-11-23T00:22:42.645Z,0
2018-11-23T00:23:42.097Z,0
2018-11-23T00:24:42.113Z,0
2018-11-23T00:25:42.563Z,0
2018-11-23T00:26:42.536Z,0
2018-11-23T00:27:42.279Z,0
2018-11-23T00:28:42.747Z,0
2018-11-23T00:29:42.470Z,0
2018-11-23T00:30:42.194Z,0
2018-11-23T00:31:42.169Z,0
2018-11-23T00:32:42.147Z,0
2018-11-23T00:33:42.146Z,0
2018-11-23T00:34:42.359Z,0
2018-11-23T00:35:42.329Z,0
2018-11-23T00:36:42.330Z,0
2018-11-23T00:37:42.057Z,0
2018-11-23T00:38:42.266Z,0
2018-11-23T00:39:42.532Z,0
2018-11-23T00:40:41.706Z,0
2018-11-23T00:41:41.689Z,0
2018-11-23T00:42:42.432Z,0
2018-11-23T00:43:41.893Z,0
2018-11-23T00:44:42.376Z,0
2018-11-23T00:45:47.501Z,0
2018-11-23T00:46:42.077Z,0
2018-11-23T00:47:42.083Z,0
2018-11-23T00:48:42.036Z,0
2018-11-23T00:49:42.281Z,0
2018-11-23T00:50:41.997Z,0
2018-11-23T00:51:41.964Z,0
2018-11-23T00:52:41.684Z,0
2018-11-23T00:53:41.658Z,0
2018-11-23T00:54:41.902Z,0
2018-11-23T00:55:41.109Z,0
2018-11-23T00:56:41.342Z,0
2018-11-23T00:57:41.828Z,0
2018-11-23T00:58:42.054Z,0
2018-11-23T00:59:41.560Z,0
2018-11-23T01:00:41.500Z,0
2018-11-23T01:01:41.471Z,0
2018-11-23T01:02:41.964Z,0
2018-11-23T01:03:41.691Z,0
2018-11-23T01:04:41.411Z,0
2018-11-23T01:05:41.652Z,0
2018-11-23T01:06:41.361Z,0
2018-11-23T01:07:41.855Z,0
2018-11-23T01:08:41.785Z,0
2018-11-23T01:09:41.553Z,0
2018-11-23T01:10:41.009Z,0
2018-11-23T01:11:41.501Z,0
2018-11-23T01:12:41.223Z,0
2018-11-23T01:13:40.950Z,0
2018-11-23T01:14:41.447Z,0
2018-11-23T01:15:41.663Z,0
2018-11-23T01:16:41.148Z,0
2018-11-23T01:17:41.356Z,0
2018-11-23T01:18:41.336Z,0
2018-11-23T01:19:41.320Z,0
2018-11-23T01:20:41.357Z,0
2018-11-23T01:21:40.785Z,0
2018-11-23T01:22:41.242Z,0
2018-11-23T01:23:40.998Z,0
2018-11-23T01:24:40.943Z,0
2018-11-23T01:25:40.924Z,0
2018-11-23T01:26:40.895Z,0
2018-11-23T01:27:40.880Z,0
2018-11-23T01:28:40.871Z,0
2018-11-23T01:29:40.841Z,0
2018-11-23T01:30:41.107Z,0
2018-11-23T01:31:41.302Z,0
2018-11-23T01:32:41.021Z,0
2018-11-23T01:33:41.008Z,0
2018-11-23T01:34:40.716Z,0
2018-11-23T01:35:41.227Z,0
2018-11-23T01:36:41.170Z,0
2018-11-23T01:37:40.672Z,0
2018-11-23T01:38:41.130Z,0
2018-11-23T01:39:41.112Z,0
2018-11-23T01:40:41.236Z,0
2018-11-23T01:41:40.840Z,0
2018-11-23T01:42:40.783Z,0
2018-11-23T01:43:41.018Z,0
2018-11-23T01:44:40.227Z,0
2018-11-23T01:45:40.454Z,0
2018-11-23T01:46:40.468Z,0
2018-11-23T01:47:40.665Z,0
2018-11-23T01:48:40.392Z,0
2018-11-23T01:49:40.615Z,0
2018-11-23T01:50:40.602Z,0
2018-11-23T01:51:40.319Z,0
2018-11-23T01:52:40.612Z,0
2018-11-23T01:53:40.584Z,0
2018-11-23T01:54:40.502Z,0
2018-11-23T01:55:40.475Z,0
2018-11-23T01:56:40.470Z,0
2018-11-23T01:57:40.424Z,0
2018-11-23T01:58:40.425Z,0
2018-11-23T01:59:40.644Z,0
2018-11-23T02:00:40.355Z,0
2018-11-23T02:01:40.345Z,0
2018-11-23T02:02:40.575Z,0
2018-11-23T02:03:39.789Z,0
2018-11-23T02:04:40.525Z,0
2018-11-23T02:05:39.770Z,0
2018-11-23T02:06:40.225Z,0
2018-11-23T02:07:40.202Z,0
2018-11-23T02:08:40.185Z,0
2018-11-23T02:09:39.899Z,0
2018-11-23T02:10:40.130Z,0
2018-11-23T02:11:40.497Z,0
2018-11-23T02:12:39.579Z,0
2018-11-23T02:13:40.321Z,0
2018-11-23T02:14:39.791Z,0
2018-11-23T02:15:40.020Z,0
2018-11-23T02:16:39.738Z,0
2018-11-23T02:17:39.723Z,0
2018-11-23T02:18:39.950Z,0
2018-11-23T02:19:39.669Z,0
2018-11-23T02:20:39.906Z,0
2018-11-23T02:21:39.641Z,0
2018-11-23T02:22:39.609Z,0
2018-11-23T02:23:39.832Z,0
2018-11-23T02:24:39.806Z,0
2018-11-23T02:25:40.034Z,0
2018-11-23T02:26:39.757Z,0
2018-11-23T02:27:39.994Z,0
2018-11-23T02:28:39.508Z,0
2018-11-23T02:29:39.688Z,0
2018-11-23T02:30:39.687Z,0
2018-11-23T02:31:39.948Z,0
2018-11-23T02:32:39.865Z,0
2018-11-23T02:33:39.092Z,0
2018-11-23T02:34:39.363Z,0
2018-11-23T02:35:39.544Z,0
2018-11-23T02:36:39.272Z,0
2018-11-23T02:37:39.255Z,0
2018-11-23T02:38:39.489Z,0
2018-11-23T02:39:39.711Z,0
2018-11-23T02:40:39.431Z,0
2018-11-23T02:41:39.176Z,0
2018-11-23T02:42:39.401Z,0
2018-11-23T02:43:39.616Z,0
2018-11-23T02:44:39.099Z,0
2018-11-23T02:45:39.057Z,0
2018-11-23T02:46:39.041Z,0
2018-11-23T02:47:39.525Z,0
2018-11-23T02:48:39.252Z,0
2018-11-23T02:49:38.973Z,0
2018-11-23T02:50:38.774Z,0
2018-11-23T02:51:38.702Z,0
2018-11-23T02:52:38.904Z,0
2018-11-23T02:53:38.875Z,0
2018-11-23T02:54:38.850Z,0
2018-11-23T02:55:39.137Z,0
2018-11-23T02:56:39.056Z,0
2018-11-23T02:57:39.059Z,0
2018-11-23T02:58:39.012Z,0
2018-11-23T02:59:38.985Z,0
2018-11-23T03:00:39.231Z,0
2018-11-23T03:01:39.194Z,0
2018-11-23T03:02:38.408Z,0
2018-11-23T03:03:39.166Z,0
2018-11-23T03:04:38.871Z,0
2018-11-23T03:05:39.116Z,0
2018-11-23T03:06:38.833Z,0
2018-11-23T03:07:39.068Z,0
2018-11-23T03:08:38.734Z,0
2018-11-23T03:09:39.022Z,0
2018-11-23T03:10:38.484Z,0
2018-11-23T03:11:38.725Z,0
2018-11-23T03:12:38.945Z,0
2018-11-23T03:13:38.660Z,0
2018-11-23T03:14:38.386Z,0
2018-11-23T03:15:38.614Z,0
2018-11-23T03:16:38.847Z,0
2018-11-23T03:17:38.325Z,0
2018-11-23T03:18:38.578Z,0
2018-11-23T03:19:38.771Z,0
2018-11-23T03:20:38.754Z,0
2018-11-23T03:21:38.220Z,0
2018-11-23T03:22:38.451Z,0
2018-11-23T03:23:38.186Z,0
2018-11-23T03:24:38.413Z,0
2018-11-23T03:25:38.626Z,0
2018-11-23T03:26:38.364Z,0
2018-11-23T03:27:38.583Z,0
2018-11-23T03:28:38.313Z,0
2018-11-23T03:29:38.285Z,0
2018-11-23T03:30:38.522Z,0
2018-11-23T03:31:38.239Z,0
2018-11-23T03:32:37.991Z,0
2018-11-23T03:33:37.939Z,0
2018-11-23T03:34:37.915Z,0
2018-11-23T03:35:38.407Z,0
2018-11-23T03:36:37.881Z,0
2018-11-23T03:37:38.359Z,0
2018-11-23T03:38:38.077Z,0
2018-11-23T03:39:43.493Z,0
2018-11-23T03:40:38.024Z,0
2018-11-23T03:41:38.256Z,0
2018-11-23T03:42:37.469Z,0
2018-11-23T03:43:38.204Z,0
2018-11-23T03:44:37.936Z,0
2018-11-23T03:45:37.163Z,0
2018-11-23T03:46:38.147Z,0
2018-11-23T03:47:37.347Z,0
2018-11-23T03:48:37.591Z,0
2018-11-23T03:49:37.827Z,0
2018-11-23T03:50:38.059Z,0
2018-11-23T03:51:37.529Z,0
2018-11-23T03:52:37.244Z,0
2018-11-23T03:53:37.220Z,0
2018-11-23T03:54:37.718Z,0
2018-11-23T03:55:37.427Z,0
2018-11-23T03:56:37.152Z,0
2018-11-23T03:57:37.638Z,0
2018-11-23T03:58:37.873Z,0
2018-11-23T03:59:37.343Z,0
2018-11-23T04:00:37.560Z,0
2018-11-23T04:01:37.536Z,0
2018-11-23T04:02:37.524Z,0
2018-11-23T04:03:37.743Z,0
2018-11-23T04:04:37.721Z,0
2018-11-23T04:05:37.451Z,0
2018-11-23T04:06:37.686Z,0
2018-11-23T04:07:37.396Z,0
2018-11-23T04:08:36.629Z,0
2018-11-23T04:09:37.106Z,0
2018-11-23T04:10:37.336Z,0
2018-11-23T04:11:37.556Z,0
2018-11-23T04:12:37.032Z,0
2018-11-23T04:13:37.000Z,0
2018-11-23T04:14:37.490Z,0
2018-11-23T04:15:37.225Z,0
2018-11-23T04:16:36.950Z,0
2018-11-23T04:17:37.429Z,0
2018-11-23T04:18:37.146Z,0
2018-11-23T04:19:37.371Z,0
2018-11-23T04:20:37.350Z,0
2018-11-23T04:21:37.070Z,0
2018-11-23T04:22:36.544Z,0
2018-11-23T04:23:37.026Z,0
2018-11-23T04:24:37.001Z,0
2018-11-23T04:25:37.241Z,0
2018-11-23T04:26:36.954Z,0
2018-11-23T04:27:37.188Z,0
2018-11-23T04:28:37.163Z,0
2018-11-23T04:29:36.883Z,0
2018-11-23T04:30:36.870Z,0
2018-11-23T04:31:36.344Z,0
2018-11-23T04:32:37.073Z,0
2018-11-23T04:33:36.535Z,0
2018-11-23T04:34:37.043Z,0
2018-11-23T04:35:36.489Z,0
2018-11-23T04:36:36.969Z,0
2018-11-23T04:37:37.009Z,0
2018-11-23T04:38:36.669Z,0
2018-11-23T04:39:36.164Z,0
2018-11-23T04:40:36.625Z,0
2018-11-23T04:41:36.353Z,0
2018-11-23T04:42:36.321Z,0
2018-11-23T04:43:36.297Z,0
2018-11-23T04:44:36.029Z,0
2018-11-23T04:45:36.518Z,0
2018-11-23T04:46:36.494Z,0
2018-11-23T04:47:36.746Z,0
2018-11-23T04:48:36.685Z,0
2018-11-23T04:49:36.659Z,0
2018-11-23T04:50:36.392Z,0
2018-11-23T04:51:36.103Z,0
2018-11-23T04:52:36.599Z,0
2018-11-23T04:53:36.572Z,0
2018-11-23T04:54:36.035Z,0
2018-11-23T04:55:36.007Z,0
2018-11-23T04:56:35.752Z,0
2018-11-23T04:57:36.477Z,0
2018-11-23T04:58:35.957Z,0
2018-11-23T04:59:36.443Z,0
2018-11-23T05:00:35.906Z,0
2018-11-23T05:01:35.875Z,0
2018-11-23T05:02:35.876Z,0
2018-11-23T05:03:37.034Z,0
2018-11-23T05:04:36.316Z,0
2018-11-23T05:05:36.277Z,0
2018-11-23T05:06:35.533Z,0
2018-11-23T05:07:35.733Z,0
2018-11-23T05:08:51.018Z,0
2018-11-23T05:09:35.944Z,0
2018-11-23T05:10:35.914Z,0
2018-11-23T05:11:35.637Z,0
2018-11-23T05:12:36.133Z,0
2018-11-23T05:13:35.908Z,0
2018-11-23T05:14:35.826Z,0
2018-11-23T05:15:35.299Z,0
2018-11-23T05:16:36.028Z,0
2018-11-23T05:17:35.507Z,0
2018-11-23T05:18:35.520Z,0
2018-11-23T05:19:35.712Z,0
2018-11-23T05:20:35.430Z,0
2018-11-23T05:21:35.912Z,0
2018-11-23T05:22:35.651Z,0
2018-11-23T05:23:35.893Z,0
2018-11-23T05:24:35.584Z,0
2018-11-23T05:25:35.303Z,0
2018-11-23T05:26:35.535Z,0
2018-11-23T05:27:34.999Z,0
2018-11-23T05:28:35.225Z,0
2018-11-23T05:29:35.722Z,0
2018-11-23T05:30:35.462Z,0
2018-11-23T05:31:35.445Z,0
2018-11-23T05:32:35.136Z,0
2018-11-23T05:33:35.378Z,0
2018-11-23T05:34:35.665Z,0
2018-11-23T05:35:35.146Z,0
2018-11-23T05:36:35.314Z,0
2018-11-23T05:37:35.032Z,0
2018-11-23T05:38:35.255Z,0
2018-11-23T05:39:34.973Z,0
2018-11-23T05:40:34.970Z,0
2018-11-23T05:41:35.189Z,0
2018-11-23T05:42:35.158Z,0
2018-11-23T05:43:34.647Z,0
2018-11-23T05:44:34.870Z,0
2018-11-23T05:45:34.850Z,0
2018-11-23T05:46:35.319Z,0
2018-11-23T05:47:34.784Z,0
2018-11-23T05:48:36.138Z,0
2018-11-23T05:49:34.742Z,0
2018-11-23T05:50:34.970Z,0
2018-11-23T05:51:35.220Z,0
2018-11-23T05:52:34.412Z,0
2018-11-23T05:53:34.898Z,0
2018-11-23T05:54:35.145Z,0
2018-11-23T05:55:34.608Z,0
2018-11-23T05:56:34.825Z,0
2018-11-23T05:57:34.550Z,0
2018-11-23T05:58:34.572Z,0
2018-11-23T05:59:35.016Z,0
2018-11-23T06:00:34.485Z,0
2018-11-23T06:01:34.715Z,0
2018-11-23T06:02:34.697Z,0
2018-11-23T06:03:34.667Z,0
2018-11-23T06:04:34.900Z,0
2018-11-23T06:05:34.658Z,0
2018-11-23T06:06:38.370Z,0
2018-11-23T06:07:34.584Z,0
2018-11-23T06:08:34.546Z,0
2018-11-23T06:09:34.289Z,0
2018-11-23T06:10:34.269Z,0
2018-11-23T06:11:34.740Z,0
2018-11-23T06:12:34.202Z,0
2018-11-23T06:13:34.700Z,0
2018-11-23T06:14:34.164Z,0
2018-11-23T06:15:34.382Z,0
2018-11-23T06:16:34.362Z,0
2018-11-23T06:17:34.342Z,0
2018-11-23T06:18:34.320Z,0
2018-11-23T06:19:34.557Z,0
2018-11-23T06:20:34.014Z,0
2018-11-23T06:21:34.242Z,0
2018-11-23T06:22:33.739Z,0
2018-11-23T06:23:34.446Z,0
2018-11-23T06:24:41.100Z,0
2018-11-23T06:25:34.435Z,0
2018-11-23T06:26:34.380Z,0
2018-11-23T06:27:33.852Z,0
2018-11-23T06:28:34.082Z,0
2018-11-23T06:29:34.055Z,0
2018-11-23T06:30:33.794Z,0
2018-11-23T06:31:34.273Z,0
2018-11-23T06:32:33.990Z,0
2018-11-23T06:33:33.803Z,0
2018-11-23T06:34:33.686Z,0
2018-11-23T06:35:33.922Z,0
2018-11-23T06:36:33.886Z,0
2018-11-23T06:37:33.611Z,0
2018-11-23T06:38:33.842Z,0
2018-11-23T06:39:33.818Z,0
2018-11-23T06:40:33.802Z,0
2018-11-23T06:41:33.271Z,0
2018-11-23T06:42:33.497Z,0
2018-11-23T06:43:33.729Z,0
2018-11-23T06:44:33.692Z,0
2018-11-23T06:45:33.677Z,0
2018-11-23T06:46:33.908Z,0
2018-11-23T06:47:33.636Z,0
2018-11-23T06:48:33.623Z,0
2018-11-23T06:49:33.845Z,0
2018-11-23T06:50:33.580Z,0
2018-11-23T06:51:33.032Z,0
2018-11-23T06:52:33.274Z,0
2018-11-23T06:53:33.758Z,0
2018-11-23T06:54:32.709Z,0
2018-11-23T06:55:33.748Z,0
2018-11-23T06:56:33.418Z,0
2018-11-23T06:57:33.150Z,0
2018-11-23T06:58:33.398Z,0
2018-11-23T06:59:33.167Z,0
2018-11-23T07:00:33.355Z,5
2018-11-23T07:01:32.795Z,5
2018-11-23T07:02:33.335Z,5
2018-11-23T07:03:33.003Z,5
2018-11-23T07:04:33.257Z,5
2018-11-23T07:05:32.453Z,5
2018-11-23T07:06:32.939Z,5
2018-11-23T07:07:33.427Z,5
2018-11-23T07:08:33.571Z,5
2018-11-23T07:09:33.125Z,5
2018-11-23T07:10:32.587Z,5
2018-11-23T07:11:32.809Z,10
2018-11-23T07:12:33.291Z,10
2018-11-23T07:13:32.776Z,10
2018-11-23T07:14:33.020Z,10
2018-11-23T07:15:32.980Z,10
2018-11-23T07:16:32.708Z,10
2018-11-23T07:17:32.673Z,10
2018-11-23T07:18:32.917Z,10
2018-11-23T07:19:32.899Z,15
2018-11-23T07:20:32.607Z,15
2018-11-23T07:21:32.323Z,15
2018-11-23T07:22:32.547Z,15
2018-11-23T07:23:32.531Z,15
2018-11-23T07:24:32.507Z,15
2018-11-23T07:25:32.751Z,15
2018-11-23T07:26:32.723Z,15
2018-11-23T07:27:32.176Z,20
2018-11-23T07:28:32.697Z,20
2018-11-23T07:29:32.397Z,20
2018-11-23T07:30:32.376Z,20
2018-11-23T07:31:32.599Z,20
2018-11-23T07:32:32.580Z,20
2018-11-23T07:33:32.607Z,20
2018-11-23T07:34:32.541Z,25
2018-11-23T07:35:32.764Z,25
2018-11-23T07:36:32.539Z,25
2018-11-23T07:37:32.468Z,25
2018-11-23T07:38:32.449Z,25
2018-11-23T07:39:32.668Z,25
2018-11-23T07:40:32.139Z,25
2018-11-23T07:41:32.370Z,30
2018-11-23T07:42:32.361Z,30
2018-11-23T07:43:32.370Z,30
2018-11-23T07:44:31.782Z,30
2018-11-23T07:45:32.014Z,30
2018-11-23T07:46:32.500Z,30
2018-11-23T07:47:31.718Z,30
2018-11-23T07:48:32.214Z,30
2018-11-23T07:49:32.447Z,35
2018-11-23T07:50:32.153Z,35
2018-11-23T07:51:38.915Z,35
2018-11-23T07:52:32.115Z,35
2018-11-23T07:53:32.340Z,35
2018-11-23T07:54:32.067Z,35
2018-11-23T07:55:32.048Z,35
2018-11-23T07:56:32.015Z,35
2018-11-23T07:57:32.257Z,40
2018-11-23T07:58:31.960Z,40
2018-11-23T07:59:31.949Z,40
2018-11-23T08:00:31.967Z,40
2018-11-23T08:01:31.403Z,40
2018-11-23T08:02:31.895Z,40
2018-11-23T08:03:32.110Z,40
2018-11-23T08:04:31.842Z,40
2018-11-23T08:05:31.568Z,45
2018-11-23T08:06:31.790Z,45
2018-11-23T08:07:32.021Z,45
2018-11-23T08:08:31.741Z,45
2018-11-23T08:09:31.972Z,45
2018-11-23T08:10:31.710Z,45
2018-11-23T08:11:31.933Z,45
2018-11-23T08:12:31.408Z,50
2018-11-23T08:13:31.882Z,50
2018-11-23T08:14:31.356Z,50
2018-11-23T08:15:31.576Z,50
2018-11-23T08:16:31.552Z,50
2018-11-23T08:17:31.533Z,50
2018-11-23T08:18:31.770Z,50
2018-11-23T08:19:30.975Z,50
2018-11-23T08:20:31.214Z,55
2018-11-23T08:21:31.447Z,55
2018-11-23T08:22:31.420Z,55
2018-11-23T08:23:31.639Z,55
2018-11-23T08:24:32.033Z,55
2018-11-23T08:25:31.358Z,55
2018-11-23T08:26:31.572Z,55
2018-11-23T08:27:31.321Z,60
2018-11-23T08:28:31.283Z,60
2018-11-23T08:29:31.260Z,60
2018-11-23T08:30:30.998Z,60
2018-11-23T08:31:31.462Z,60
2018-11-23T08:32:30.930Z,60
2018-11-23T08:33:31.165Z,60
2018-11-23T08:34:30.891Z,60
2018-11-23T08:35:30.875Z,60
2018-11-23T08:36:31.416Z,65
2018-11-23T08:37:31.098Z,65
2018-11-23T08:38:30.790Z,65
2018-11-23T08:39:31.047Z,65
2018-11-23T08:40:31.021Z,65
2018-11-23T08:41:30.727Z,65
2018-11-23T08:42:30.962Z,65
2018-11-23T08:43:31.202Z,65
2018-11-23T08:44:30.657Z,65
2018-11-23T08:45:31.190Z,65
2018-11-23T08:46:30.890Z,70
2018-11-23T08:47:30.587Z,70
2018-11-23T08:48:31.120Z,70
2018-11-23T08:49:30.543Z,70
2018-11-23T08:50:30.799Z,70
2018-11-23T08:51:30.766Z,70
2018-11-23T08:52:30.987Z,70
2018-11-23T08:53:36.614Z,70
2018-11-23T08:54:30.713Z,70
2018-11-23T08:55:30.411Z,75
2018-11-23T08:56:30.387Z,75
2018-11-23T08:57:30.622Z,75
2018-11-23T08:58:30.856Z,75
2018-11-23T08:59:30.588Z,75
2018-11-23T09:00:30.316Z,75
2018-11-23T09:01:30.533Z,75
2018-11-23T09:02:30.774Z,75
2018-11-23T09:03:30.491Z,75
2018-11-23T09:04:30.206Z,75
2018-11-23T09:05:30.195Z,75
2018-11-23T09:06:30.275Z,80
2018-11-23T09:07:30.390Z,80
2018-11-23T09:08:30.387Z,80
2018-11-23T09:09:30.560Z,80
2018-11-23T09:10:30.365Z,80
2018-11-23T09:11:30.054Z,80
2018-11-23T09:12:30.034Z,80
2018-11-23T09:13:30.181Z,85
2018-11-23T09:14:29.993Z,85
2018-11-23T09:15:29.737Z,85
2018-11-23T09:16:30.211Z,90
2018-11-23T09:17:30.429Z,85
2018-11-23T09:18:30.157Z,90
2018-11-23T09:19:30.135Z,110
2018-11-23T09:20:30.117Z,170
2018-11-23T09:21:29.589Z,185
2018-11-23T09:22:32.934Z,125
2018-11-23T09:23:29.797Z,100
2018-11-23T09:24:30.095Z,120
2018-11-23T09:25:30.005Z,165
2018-11-23T09:26:29.735Z,185
2018-11-23T09:27:29.707Z,175
2018-11-23T09:28:30.199Z,135
2018-11-23T09:29:31.230Z,105
2018-11-23T09:30:29.660Z,100
2018-11-23T09:31:29.900Z,100
2018-11-23T09:32:29.853Z,100
2018-11-23T09:33:29.834Z,100
2018-11-23T09:34:29.565Z,100
2018-11-23T09:35:29.613Z,105
2018-11-23T09:36:30.065Z,140
2018-11-23T09:37:29.493Z,175
2018-11-23T09:38:29.739Z,180
2018-11-23T09:39:29.713Z,205
2018-11-23T09:40:29.510Z,210
2018-11-23T09:41:29.684Z,170
2018-11-23T09:42:29.683Z,130
2018-11-23T09:43:29.627Z,115
2018-11-23T09:44:29.657Z,115
2018-11-23T09:45:29.113Z,115
2018-11-23T09:46:29.834Z,115
2018-11-23T09:47:29.550Z,125
2018-11-23T09:48:29.781Z,160
2018-11-23T09:49:29.463Z,190
2018-11-23T09:50:29.755Z,210
2018-11-23T09:51:29.548Z,180
2018-11-23T09:52:29.452Z,185
2018-11-23T09:53:29.196Z,195
2018-11-23T09:54:29.671Z,220
2018-11-23T09:55:29.653Z,270
2018-11-23T09:56:29.389Z,255
2018-11-23T09:57:29.634Z,245
2018-11-23T09:58:29.081Z,255
2018-11-23T09:59:29.583Z,250
2018-11-23T10:00:29.568Z,250
2018-11-23T10:01:29.296Z,230
2018-11-23T10:02:28.759Z,215
2018-11-23T10:03:29.562Z,205
2018-11-23T10:04:29.672Z,200
2018-11-23T10:05:29.220Z,245
2018-11-23T10:06:28.942Z,255
2018-11-23T10:07:29.182Z,235
2018-11-23T10:08:29.166Z,270
2018-11-23T10:09:28.635Z,300
2018-11-23T10:10:28.882Z,330
2018-11-23T10:11:29.424Z,390
2018-11-23T10:12:29.131Z,340
2018-11-23T10:13:29.073Z,275
2018-11-23T10:14:28.548Z,185
2018-11-23T10:15:29.297Z,140
2018-11-23T10:16:29.073Z,125
2018-11-23T10:17:28.505Z,110
2018-11-23T10:18:28.994Z,120
2018-11-23T10:19:29.245Z,140
2018-11-23T10:20:29.299Z,155
2018-11-23T10:21:29.001Z,155
2018-11-23T10:22:28.677Z,290
2018-11-23T10:23:28.672Z,280
2018-11-23T10:24:28.958Z,295
2018-11-23T10:25:28.654Z,260
2018-11-23T10:26:28.869Z,280
2018-11-23T10:27:28.415Z,200
2018-11-23T10:28:28.879Z,140
2018-11-23T10:29:28.559Z,270
2018-11-23T10:30:28.574Z,240
2018-11-23T10:31:29.075Z,280
2018-11-23T10:32:28.510Z,300
2018-11-23T10:33:32.764Z,185
2018-11-23T10:34:28.742Z,200
2018-11-23T10:35:28.724Z,250
2018-11-23T10:36:28.714Z,250
2018-11-23T10:37:28.952Z,220
2018-11-23T10:38:28.430Z,245
2018-11-23T10:39:28.692Z,250
2018-11-23T10:40:28.395Z,245
2018-11-23T10:41:28.903Z,265
2018-11-23T10:42:28.697Z,280
2018-11-23T10:43:27.875Z,290
2018-11-23T10:44:28.592Z,270
2018-11-23T10:45:28.571Z,295
2018-11-23T10:46:28.827Z,305
2018-11-23T10:47:28.818Z,275
2018-11-23T10:48:28.539Z,260
2018-11-23T10:49:28.775Z,260
2018-11-23T10:50:28.750Z,290
2018-11-23T10:51:28.497Z,320
2018-11-23T10:52:28.907Z,335
2018-11-23T10:53:28.702Z,360
2018-11-23T10:54:28.185Z,400
2018-11-23T10:55:28.176Z,380
2018-11-23T10:56:28.681Z,315
2018-11-23T10:57:28.396Z,300
2018-11-23T10:58:28.651Z,295
2018-11-23T10:59:27.857Z,290
2018-11-23T11:00:28.371Z,320
2018-11-23T11:01:28.094Z,360
2018-11-23T11:02:28.116Z,370
2018-11-23T11:03:28.069Z,345
2018-11-23T11:04:27.801Z,300
2018-11-23T11:05:28.304Z,255
2018-11-23T11:06:28.556Z,255
2018-11-23T11:07:27.766Z,285
2018-11-23T11:08:28.508Z,320
2018-11-23T11:09:28.702Z,290
2018-11-23T11:10:27.999Z,335
2018-11-23T11:11:28.005Z,365
2018-11-23T11:12:28.233Z,325
2018-11-23T11:13:28.216Z,300
2018-11-23T11:14:28.188Z,310
2018-11-23T11:15:28.171Z,355
2018-11-23T11:16:27.909Z,380
2018-11-23T11:17:28.154Z,355
2018-11-23T11:18:28.387Z,310
2018-11-23T11:19:27.882Z,310
2018-11-23T11:20:27.862Z,345
2018-11-23T11:21:27.849Z,330
2018-11-23T11:22:28.085Z,310
2018-11-23T11:23:28.074Z,350
2018-11-23T11:24:27.816Z,395
2018-11-23T11:25:27.605Z,405
2018-11-23T11:26:28.047Z,420
2018-11-23T11:27:28.031Z,290
2018-11-23T11:28:28.287Z,205
2018-11-23T11:29:28.252Z,310
2018-11-23T11:30:28.002Z,325
2018-11-23T11:31:27.974Z,290
2018-11-23T11:32:27.722Z,290
2018-11-23T11:33:27.966Z,325
2018-11-23T11:34:27.687Z,370
2018-11-23T11:35:28.208Z,295
2018-11-23T11:36:27.936Z,440
2018-11-23T11:37:27.714Z,455
2018-11-23T11:38:27.902Z,450
2018-11-23T11:39:28.155Z,445
2018-11-23T11:40:27.632Z,440
2018-11-23T11:41:28.137Z,425
2018-11-23T11:42:28.116Z,430
2018-11-23T11:43:28.103Z,420
2018-11-23T11:44:27.343Z,430
2018-11-23T11:45:27.585Z,435
2018-11-23T11:46:27.583Z,430
2018-11-23T11:47:27.809Z,420
2018-11-23T11:48:27.048Z,410
2018-11-23T11:49:28.058Z,405
2018-11-23T11:50:27.546Z,410
2018-11-23T11:51:28.051Z,405
2018-11-23T11:52:28.028Z,405
2018-11-23T11:53:28.005Z,405
2018-11-23T11:54:27.549Z,410
2018-11-23T11:55:28.014Z,410
2018-11-23T11:56:27.748Z,410
2018-11-23T11:57:27.729Z,385
2018-11-23T11:58:27.476Z,405
2018-11-23T11:59:27.977Z,405
2018-11-23T12:00:27.719Z,410
2018-11-23T12:01:27.454Z,415
2018-11-23T12:02:27.693Z,410
2018-11-23T12:03:27.691Z,405
2018-11-23T12:04:27.371Z,405
2018-11-23T12:05:27.678Z,410
2018-11-23T12:06:27.676Z,405
2018-11-23T12:07:27.683Z,400
2018-11-23T12:08:27.896Z,405
2018-11-23T12:09:27.894Z,395
2018-11-23T12:10:27.379Z,395
2018-11-23T12:11:27.631Z,410
2018-11-23T12:12:27.369Z,400
2018-11-23T12:13:27.867Z,400
2018-11-23T12:14:26.853Z,395
2018-11-23T12:15:27.094Z,380
2018-11-23T12:16:28.902Z,390
2018-11-23T12:17:27.349Z,395
2018-11-23T12:18:27.319Z,410
2018-11-23T12:19:27.319Z,420
2018-11-23T12:20:27.371Z,415
2018-11-23T12:21:27.557Z,310
2018-11-23T12:22:27.559Z,405
2018-11-23T12:23:27.292Z,400
2018-11-23T12:24:27.810Z,395
2018-11-23T12:25:27.789Z,385
2018-11-23T12:26:27.029Z,375
2018-11-23T12:27:29.431Z,370
2018-11-23T12:28:27.512Z,375
2018-11-23T12:29:27.762Z,355
2018-11-23T12:30:27.528Z,295
2018-11-23T12:31:27.494Z,360
2018-11-23T12:32:27.232Z,290
2018-11-23T12:33:27.741Z,355
2018-11-23T12:34:27.218Z,345
2018-11-23T12:35:27.226Z,335
2018-11-23T12:36:27.211Z,335
2018-11-23T12:37:27.472Z,335
2018-11-23T12:38:27.188Z,335
2018-11-23T12:39:27.203Z,335
2018-11-23T12:40:27.685Z,335
2018-11-23T12:41:27.444Z,335
2018-11-23T12:42:27.167Z,335
2018-11-23T12:43:27.168Z,335
2018-11-23T12:44:27.180Z,335
2018-11-23T12:45:27.658Z,335
2018-11-23T12:46:27.409Z,330
2018-11-23T12:47:27.146Z,325
2018-11-23T12:48:27.390Z,325
2018-11-23T12:49:27.395Z,325
2018-11-23T12:50:27.134Z,320
2018-11-23T12:51:27.148Z,320
2018-11-23T12:52:27.410Z,315
2018-11-23T12:53:27.100Z,315
2018-11-23T12:54:27.593Z,310
2018-11-23T12:55:26.869Z,315
2018-11-23T12:56:27.371Z,305
2018-11-23T12:57:27.365Z,305
2018-11-23T12:58:27.312Z,315
2018-11-23T12:59:27.053Z,310
2018-11-23T13:00:27.302Z,305
2018-11-23T13:01:27.299Z,300
2018-11-23T13:02:27.293Z,295
2018-11-23T13:03:27.288Z,295
2018-11-23T13:04:27.285Z,290
2018-11-23T13:05:27.528Z,295
2018-11-23T13:06:27.304Z,285
2018-11-23T13:07:27.568Z,285
2018-11-23T13:08:27.503Z,280
2018-11-23T13:09:27.689Z,280
2018-11-23T13:10:27.251Z,275
2018-11-23T13:11:26.978Z,275
2018-11-23T13:12:27.272Z,270
2018-11-23T13:13:27.002Z,265
2018-11-23T13:14:27.465Z,265
2018-11-23T13:15:26.711Z,265
2018-11-23T13:16:27.455Z,260
2018-11-23T13:17:26.935Z,255
2018-11-23T13:18:27.436Z,255
2018-11-23T13:19:27.436Z,255
2018-11-23T13:20:27.182Z,255
2018-11-23T13:21:27.007Z,250
2018-11-23T13:22:27.162Z,250
2018-11-23T13:23:27.147Z,245
2018-11-23T13:24:27.144Z,240
2018-11-23T13:25:26.912Z,240
2018-11-23T13:26:26.887Z,240
2018-11-23T13:27:27.120Z,235
2018-11-23T13:28:27.366Z,235
2018-11-23T13:29:27.121Z,235
2018-11-23T13:30:27.348Z,230
2018-11-23T13:31:27.098Z,220
2018-11-23T13:32:26.833Z,210
2018-11-23T13:33:27.342Z,175
2018-11-23T13:34:26.551Z,125
2018-11-23T13:35:27.059Z,110
2018-11-23T13:36:27.060Z,100
2018-11-23T13:37:27.302Z,95
2018-11-23T13:38:26.846Z,90
2018-11-23T13:39:27.024Z,85
2018-11-23T13:40:27.271Z,80
2018-11-23T13:41:27.272Z,80
2018-11-23T13:42:27.311Z,80
2018-11-23T13:43:26.747Z,75
2018-11-23T13:44:26.490Z,75
2018-11-23T13:45:27.236Z,75
2018-11-23T13:46:27.271Z,75
2018-11-23T13:47:26.971Z,75
2018-11-23T13:48:29.303Z,75
2018-11-23T13:49:26.694Z,75
2018-11-23T13:50:26.692Z,75
2018-11-23T13:51:27.172Z,75
2018-11-23T13:52:26.932Z,75
2018-11-23T13:53:26.921Z,75
2018-11-23T13:54:26.376Z,75
2018-11-23T13:55:27.257Z,75
2018-11-23T13:56:26.593Z,75
2018-11-23T13:57:26.877Z,70
2018-11-23T13:58:26.846Z,70
2018-11-23T13:59:26.838Z,70
2018-11-23T14:00:26.868Z,70
2018-11-23T14:01:26.280Z,70
2018-11-23T14:02:26.805Z,70
2018-11-23T14:03:26.264Z,70
2018-11-23T14:04:26.518Z,65
2018-11-23T14:05:26.483Z,65
2018-11-23T14:06:26.726Z,65
2018-11-23T14:07:27.012Z,65
2018-11-23T14:08:26.471Z,65
2018-11-23T14:09:26.680Z,65
2018-11-23T14:10:26.681Z,65
2018-11-23T14:11:26.400Z,60
2018-11-23T14:12:26.891Z,60
2018-11-23T14:13:26.639Z,60
2018-11-23T14:14:26.864Z,60
2018-11-23T14:15:26.622Z,60
2018-11-23T14:16:26.583Z,60
2018-11-23T14:17:26.637Z,60
2018-11-23T14:18:26.039Z,55
2018-11-23T14:19:26.285Z,55
2018-11-23T14:20:26.533Z,55
2018-11-23T14:21:26.766Z,55